Vitsentzos Kornaros — SXNX — position and weather

sailwx.info

Track history (hours):
 
Tides and Currents Weather Stations Pressure Air Temp Water Temp Dewpoint Dewpoint Depression Visibility Wind Speed Wind Dir Waves Ship Positions

Vitsentzos Kornaros

Last reported at 2016-Jul-29 04:33 UTC. Time now 2016-Jul-29 06:01 UTC.
Position N 37°57' E 023°38'.

Length 128 m; draft 4.5 m.

Type: Passenger vessel. MMSI: 239311000.

Date/timePositionNaut miles runAvg speedWind from/ knotsBaromVisibWave heightAir tempDewpointWater temp
2016-Jul-29 04:33N 37°57' E 023°38'0 0.0
2016-Jul-29 03:33N 37°57' E 023°38'1 1.4
2016-Jul-29 02:34N 37°56' E 023°37'1515.1
2016-Jul-29 01:33N 37°42' E 023°45'1514.9
2016-Jul-29 00:33N 37°28' E 023°40'1615.8
2016-Jul-28 23:34N 37°13' E 023°32'1515.4
2016-Jul-28 22:34N 36°59' E 023°26'1515.4
2016-Jul-28 21:33N 36°44' E 023°21'  
2016-Jul-25 18:33N 36°57' E 023°26'1514.8
2016-Jul-25 17:33N 37°11' E 023°32'1414.3
2016-Jul-25 16:33N 37°24' E 023°37'1514.8
2016-Jul-25 15:34N 37°38' E 023°42'1414.3
2016-Jul-25 14:34N 37°52' E 023°37'5 5.0
2016-Jul-25 13:33N 37°57' E 023°38'0 0.0
2016-Jul-25 12:33N 37°57' E 023°38'0 0.0
2016-Jul-25 11:34N 37°57' E 023°38'0 0.0
2016-Jul-25 10:34N 37°57' E 023°38'0 0.0
2016-Jul-25 09:34N 37°57' E 023°38'0 0.0
2016-Jul-25 08:33N 37°57' E 023°38'0 0.0
2016-Jul-25 07:33N 37°57' E 023°38'0 0.0
2016-Jul-25 06:33N 37°57' E 023°38'0 0.0
2016-Jul-25 05:33N 37°57' E 023°38'0 0.0
2016-Jul-25 04:33N 37°57' E 023°38'0 0.0
2016-Jul-25 03:34N 37°57' E 023°38'3 3.3
2016-Jul-25 02:34N 37°54' E 023°38'1514.9
2016-Jul-25 01:34N 37°40' E 023°45'1515.1
2016-Jul-25 00:33N 37°26' E 023°39'1515.2
2016-Jul-24 23:34N 37°11' E 023°32'1614.7
2016-Jul-24 22:30N 36°57' E 023°25'1415.1
2016-Jul-24 21:34N 36°43' E 023°20'55 9.1
2016-Jul-24 15:32N 35°49' E 023°25'3 0.3
2016-Jul-24 05:33N 35°49' E 023°29'20 0.9
2016-Jul-23 08:05N 35°31' E 023°38'0 0.0
2016-Jul-23 07:33N 35°31' E 023°38'9 1.6
2016-Jul-23 02:19N 35°39' E 023°36'3912.6
2016-Jul-22 23:14N 36°12' E 023°10'39 9.9
2016-Jul-22 19:16N 36°50' E 023°23'1115.5
2016-Jul-22 18:33N 37°00' E 023°27'1515.3
2016-Jul-22 17:34N 37°14' E 023°34'1515.0
2016-Jul-22 16:34N 37°29' E 023°39'1414.4
2016-Jul-22 15:34N 37°43' E 023°39'1313.4
2016-Jul-22 14:34N 37°56' E 023°38'0 0.4
2016-Jul-22 13:33N 37°57' E 023°38'0 0.0
2016-Jul-22 12:33N 37°57' E 023°38'0 0.0
2016-Jul-22 11:33N 37°57' E 023°38'0 0.0
2016-Jul-22 10:33N 37°57' E 023°38'0 0.0
2016-Jul-22 09:33N 37°57' E 023°38'0 0.0
2016-Jul-22 08:33N 37°57' E 023°38'0 0.0
2016-Jul-22 07:34N 37°57' E 023°38'0 0.0
2016-Jul-22 05:33N 37°57' E 023°38'0 0.0
2016-Jul-22 04:34N 37°57' E 023°38'0 0.0
2016-Jul-22 03:34N 37°57' E 023°38'1 0.7
2016-Jul-22 02:33N 37°56' E 023°38'1514.7
2016-Jul-22 01:33N 37°43' E 023°44'1515.4
2016-Jul-22 00:33N 37°28' E 023°40'1615.8
2016-Jul-21 23:33N 37°13' E 023°32'1615.5
2016-Jul-21 22:33N 36°58' E 023°26'1615.5
2016-Jul-21 21:33N 36°43' E 023°21'  
Track history (hours):
 
Tides and Currents Weather Stations Pressure Air Temp Water Temp Dewpoint Dewpoint Depression Visibility Wind Speed Wind Dir Waves Ship Positions

Vitsentzos Kornaros

Last reported at 2016-Jul-29 04:33 UTC. Time now 2016-Jul-29 06:01 UTC.
Position N 37°57' E 023°38'.

Length 128 m; draft 4.5 m.

Type: Passenger vessel. MMSI: 239311000.

Date/timePositionNaut miles runAvg speedWind from/ knotsBaromVisibWave heightAir tempDewpointWater temp
2016-Jul-29 04:33N 37°57' E 023°38'0 0.0
2016-Jul-29 03:33N 37°57' E 023°38'1 1.4
2016-Jul-29 02:34N 37°56' E 023°37'1515.1
2016-Jul-29 01:33N 37°42' E 023°45'1514.9
2016-Jul-29 00:33N 37°28' E 023°40'1615.8
2016-Jul-28 23:34N 37°13' E 023°32'1515.4
2016-Jul-28 22:34N 36°59' E 023°26'1515.4
2016-Jul-28 21:33N 36°44' E 023°21'  
2016-Jul-25 18:33N 36°57' E 023°26'1514.8
2016-Jul-25 17:33N 37°11' E 023°32'1414.3
2016-Jul-25 16:33N 37°24' E 023°37'1514.8
2016-Jul-25 15:34N 37°38' E 023°42'1414.3
2016-Jul-25 14:34N 37°52' E 023°37'5 5.0
2016-Jul-25 13:33N 37°57' E 023°38'0 0.0
2016-Jul-25 12:33N 37°57' E 023°38'0 0.0
2016-Jul-25 11:34N 37°57' E 023°38'0 0.0
2016-Jul-25 10:34N 37°57' E 023°38'0 0.0
2016-Jul-25 09:34N 37°57' E 023°38'0 0.0
2016-Jul-25 08:33N 37°57' E 023°38'0 0.0
2016-Jul-25 07:33N 37°57' E 023°38'0 0.0
2016-Jul-25 06:33N 37°57' E 023°38'0 0.0
2016-Jul-25 05:33N 37°57' E 023°38'0 0.0
2016-Jul-25 04:33N 37°57' E 023°38'0 0.0
2016-Jul-25 03:34N 37°57' E 023°38'3 3.3
2016-Jul-25 02:34N 37°54' E 023°38'1514.9
2016-Jul-25 01:34N 37°40' E 023°45'1515.1
2016-Jul-25 00:33N 37°26' E 023°39'1515.2
2016-Jul-24 23:34N 37°11' E 023°32'1614.7
2016-Jul-24 22:30N 36°57' E 023°25'1415.1
2016-Jul-24 21:34N 36°43' E 023°20'55 9.1
2016-Jul-24 15:32N 35°49' E 023°25'3 0.3
2016-Jul-24 05:33N 35°49' E 023°29'20 0.9
2016-Jul-23 08:05N 35°31' E 023°38'0 0.0
2016-Jul-23 07:33N 35°31' E 023°38'9 1.6
2016-Jul-23 02:19N 35°39' E 023°36'3912.6
2016-Jul-22 23:14N 36°12' E 023°10'39 9.9
2016-Jul-22 19:16N 36°50' E 023°23'1115.5
2016-Jul-22 18:33N 37°00' E 023°27'1515.3
2016-Jul-22 17:34N 37°14' E 023°34'1515.0
2016-Jul-22 16:34N 37°29' E 023°39'1414.4
2016-Jul-22 15:34N 37°43' E 023°39'1313.4
2016-Jul-22 14:34N 37°56' E 023°38'0 0.4
2016-Jul-22 13:33N 37°57' E 023°38'0 0.0
2016-Jul-22 12:33N 37°57' E 023°38'0 0.0
2016-Jul-22 11:33N 37°57' E 023°38'0 0.0
2016-Jul-22 10:33N 37°57' E 023°38'0 0.0
2016-Jul-22 09:33N 37°57' E 023°38'0 0.0
2016-Jul-22 08:33N 37°57' E 023°38'0 0.0
2016-Jul-22 07:34N 37°57' E 023°38'0 0.0
2016-Jul-22 05:33N 37°57' E 023°38'0 0.0
2016-Jul-22 04:34N 37°57' E 023°38'0 0.0
2016-Jul-22 03:34N 37°57' E 023°38'1 0.7
2016-Jul-22 02:33N 37°56' E 023°38'1514.7
2016-Jul-22 01:33N 37°43' E 023°44'1515.4
2016-Jul-22 00:33N 37°28' E 023°40'1615.8
2016-Jul-21 23:33N 37°13' E 023°32'1615.5
2016-Jul-21 22:33N 36°58' E 023°26'1615.5
2016-Jul-21 21:33N 36°43' E 023°21'  

Dump ship's entire track history